Maple Grove Park, Pennsylvania
Current Conditions -  °F | °C
As of 12:54 PM on Friday 28 Nov 2014 (Local Time) from KRDG Reporting Station
Overcast Overcast  
Wind Chill: 23°   Ceiling: 5500
Heat Index: 34°   Visibility: 10mi
Dew Point: 18°   Wind: 20mph
Humidity: 52%   Direction: 320°NW
Pressure: 30.22"   Gusts: NA
Location:  40.2411°N, 75.9752°W
Report Text: KRDG 281754Z 32017KT 10SM OVC055 01/M08 A3022 RMK AO2 SLP241 T00111078 10022 21006 58009
Loading
Personal Weather Stations






























Interactive Weather Map New forecast layout! Learn more

10-Day Weather Forecast

Advertisements
Track Severe Weather on mobile